createdAt,value
2022-11-02T00:01:39.789Z,96738.31
2022-11-02T00:04:41.311Z,96738.03
2022-11-02T00:07:42.891Z,96742.75
2022-11-02T00:10:44.422Z,96744.84
2022-11-02T00:13:46.074Z,96748.72
2022-11-02T00:16:47.801Z,96754.47
2022-11-02T00:19:49.650Z,96748.41
2022-11-02T00:22:53.093Z,96749.69
2022-11-02T00:25:56.020Z,96754.16
2022-11-02T00:28:58.233Z,96756.09
2022-11-02T00:32:00.342Z,96753.84
2022-11-02T00:35:01.933Z,96750.47
2022-11-02T00:38:03.976Z,96758.72
2022-11-02T00:41:05.916Z,96766.00
2022-11-02T00:44:07.535Z,96762.63
2022-11-02T00:47:09.730Z,96776.78
2022-11-02T00:50:11.335Z,96770.50
2022-11-02T00:53:15.008Z,96773.16
2022-11-02T00:56:25.192Z,96759.97
2022-11-02T00:59:27.763Z,96763.59
2022-11-02T01:02:33.633Z,96767.94
2022-11-02T01:05:37.408Z,96771.72
2022-11-02T01:08:39.008Z,96767.22
2022-11-02T01:11:41.382Z,96769.06
2022-11-02T01:14:42.955Z,96773.66
2022-11-02T01:17:44.569Z,96774.78
2022-11-02T01:20:46.092Z,96774.06
2022-11-02T01:23:48.328Z,96770.00
2022-11-02T01:26:51.772Z,96774.59
2022-11-02T01:29:53.361Z,96778.34
2022-11-02T01:32:54.864Z,96782.13
2022-11-02T01:35:56.445Z,96781.28
2022-11-02T01:38:58.060Z,96775.84
2022-11-02T01:41:59.615Z,96785.47
2022-11-02T01:45:01.218Z,96781.16
2022-11-02T01:48:02.994Z,96780.16
2022-11-02T01:51:09.470Z,96775.97
2022-11-02T01:54:16.052Z,96779.47
2022-11-02T01:57:21.281Z,96780.44
2022-11-02T02:00:23.084Z,96769.81
2022-11-02T02:03:25.628Z,96779.47
2022-11-02T02:06:27.269Z,96783.81
2022-11-02T02:09:29.949Z,96783.81
2022-11-02T02:12:33.240Z,96787.19
2022-11-02T02:15:54.823Z,96789.00
2022-11-02T02:19:03.709Z,96785.38
2022-11-02T02:22:26.898Z,96787.78
2022-11-02T02:25:53.333Z,96789.06
2022-11-02T02:29:16.149Z,96782.34
2022-11-02T02:32:44.997Z,96789.69
2022-11-02T02:35:55.361Z,96790.13
2022-11-02T02:38:56.827Z,96791.44
2022-11-02T02:42:01.338Z,96795.38
2022-11-02T02:45:16.207Z,96786.81
2022-11-02T02:48:20.464Z,96797.63
2022-11-02T02:51:27.750Z,96797.50
2022-11-02T02:54:38.791Z,96796.53
2022-11-02T02:57:41.291Z,96799.19
2022-11-02T03:00:44.303Z,96796.66
2022-11-02T03:03:47.128Z,96798.47
2022-11-02T03:06:53.859Z,96812.94
2022-11-02T03:10:25.792Z,96809.78
2022-11-02T03:13:43.857Z,96803.91
2022-11-02T03:17:01.609Z,96808.63
2022-11-02T03:20:24.097Z,96809.03
2022-11-02T03:23:56.336Z,96814.91
2022-11-02T03:27:12.525Z,96820.47
2022-11-02T03:30:18.527Z,96816.25
2022-11-02T03:33:29.385Z,96801.66
2022-11-02T03:36:37.342Z,96803.34
2022-11-02T03:39:43.859Z,96800.97
2022-11-02T03:42:49.509Z,96793.09
2022-11-02T03:45:55.634Z,96792.50
2022-11-02T03:49:02.366Z,96783.81
2022-11-02T03:52:13.016Z,96780.69
2022-11-02T03:55:24.226Z,96788.97
2022-11-02T03:58:26.015Z,96793.78
2022-11-02T04:01:29.396Z,96792.50
2022-11-02T04:04:31.908Z,96799.66
2022-11-02T04:07:58.542Z,96799.91
2022-11-02T04:11:20.845Z,96793.03
2022-11-02T04:14:39.278Z,96788.81
2022-11-02T04:18:04.460Z,96794.41
2022-11-02T04:21:06.441Z,96791.97
2022-11-02T04:24:27.401Z,96799.13
2022-11-02T04:27:28.919Z,96794.06
2022-11-02T04:30:32.204Z,96806.53
2022-11-02T04:33:35.088Z,96811.97
2022-11-02T04:36:41.247Z,96822.00
2022-11-02T04:39:43.441Z,96807.03
2022-11-02T04:42:48.434Z,96806.19
2022-11-02T04:45:50.153Z,96797.22
2022-11-02T04:48:52.532Z,96810.38
2022-11-02T04:51:54.189Z,96824.66
2022-11-02T04:54:55.906Z,96829.00
2022-11-02T04:57:57.852Z,96813.69
2022-11-02T05:01:03.973Z,96827.31
2022-11-02T05:04:05.847Z,96816.56
2022-11-02T05:07:11.511Z,96828.03
2022-11-02T05:10:14.047Z,96821.75
2022-11-02T05:13:16.024Z,96812.94
2022-11-02T05:16:17.971Z,96817.41
2022-11-02T05:19:20.664Z,96804.22
2022-11-02T05:22:23.780Z,96815.84
2022-11-02T05:25:25.338Z,96818.03
2022-11-02T05:28:28.800Z,96816.09
2022-11-02T05:31:31.397Z,96821.53
2022-11-02T05:34:33.377Z,96823.25
2022-11-02T05:37:35.002Z,96817.19
2022-11-02T05:40:40.452Z,96815.50
2022-11-02T05:43:43.872Z,96821.53
2022-11-02T05:46:47.761Z,96815.38
2022-11-02T05:49:49.268Z,96825.16
2022-11-02T05:52:50.851Z,96831.94
2022-11-02T05:55:53.162Z,96829.84
2022-11-02T05:58:55.606Z,96832.97
2022-11-02T06:01:57.219Z,96829.09
2022-11-02T06:04:58.804Z,96835.00
2022-11-02T06:08:01.825Z,96832.22
2022-11-02T06:11:08.145Z,96844.63
2022-11-02T06:14:09.668Z,96844.34
2022-11-02T06:17:11.221Z,96850.84
2022-11-02T06:20:12.782Z,96844.31
2022-11-02T06:23:18.133Z,96845.59
2022-11-02T06:26:19.735Z,96856.56
2022-11-02T06:29:21.292Z,96858.72
2022-11-02T06:32:23.150Z,96858.34
2022-11-02T06:35:24.708Z,96854.44
2022-11-02T06:38:26.362Z,96865.16
2022-11-02T06:41:27.977Z,96872.47
2022-11-02T06:44:29.506Z,96866.50
2022-11-02T06:47:36.599Z,96866.69
2022-11-02T06:50:38.458Z,96869.53
2022-11-02T06:53:40.006Z,96859.91
2022-11-02T06:56:41.554Z,96860.22
2022-11-02T06:59:43.087Z,96875.53
2022-11-02T07:02:45.450Z,96887.22
2022-11-02T07:05:52.290Z,96884.72
2022-11-02T07:08:55.215Z,96885.59
2022-11-02T07:11:57.490Z,96889.56
2022-11-02T07:14:58.993Z,96888.88
2022-11-02T07:18:00.556Z,96902.22
2022-11-02T07:21:02.552Z,96888.19
2022-11-02T07:24:04.369Z,96890.91
2022-11-02T07:27:05.941Z,96891.06
2022-11-02T07:30:08.481Z,96896.38
2022-11-02T07:33:10.183Z,96894.84
2022-11-02T07:36:11.729Z,96897.66
2022-11-02T07:39:13.318Z,96903.03
2022-11-02T07:42:14.845Z,96902.88
2022-11-02T07:45:18.356Z,96901.19
2022-11-02T07:48:20.083Z,96914.53
2022-11-02T07:51:21.613Z,96912.84
2022-11-02T07:54:23.127Z,96919.22
2022-11-02T07:57:24.728Z,96916.63
2022-11-02T08:00:28.619Z,96915.66
2022-11-02T08:03:30.478Z,96923.66
2022-11-02T08:06:32.155Z,96908.03
2022-11-02T08:09:34.131Z,96923.03
2022-11-02T08:12:35.675Z,96925.53
2022-11-02T08:15:38.030Z,96918.63
2022-11-02T08:18:39.566Z,96933.63
2022-11-02T08:21:41.088Z,96932.06
2022-11-02T08:24:42.627Z,96930.34
2022-11-02T08:27:44.182Z,96938.59
2022-11-02T08:30:45.752Z,96937.19
2022-11-02T08:33:47.266Z,96939.28
2022-11-02T08:36:48.801Z,96934.03
2022-11-02T08:39:50.381Z,96931.16
2022-11-02T08:42:59.050Z,96937.31
2022-11-02T08:46:17.192Z,96923.03
2022-11-02T08:49:18.958Z,96924.41
2022-11-02T08:52:20.502Z,96918.44
2022-11-02T08:55:22.058Z,96932.25
2022-11-02T08:58:23.610Z,96927.31
2022-11-02T09:01:25.230Z,96930.50
2022-11-02T09:04:29.801Z,96929.06
2022-11-02T09:07:31.380Z,96930.28
2022-11-02T09:10:35.216Z,96935.88
2022-11-02T09:13:38.336Z,96928.13
2022-11-02T09:16:41.592Z,96939.16
2022-11-02T09:19:43.742Z,96942.91
2022-11-02T09:22:46.031Z,96934.56
2022-11-02T09:25:48.773Z,96942.69
2022-11-02T09:28:50.375Z,96946.72
2022-11-02T09:31:51.955Z,96949.13
2022-11-02T09:34:54.974Z,96957.00
2022-11-02T09:37:56.788Z,96963.72
2022-11-02T09:40:58.282Z,96954.53
2022-11-02T09:44:41.636Z,96962.25
2022-11-02T09:48:15.991Z,96961.97
2022-11-02T09:51:22.443Z,96968.03
2022-11-02T09:54:41.942Z,96971.22
2022-11-02T09:57:47.782Z,96979.81
2022-11-02T10:01:00.715Z,96980.16
2022-11-02T10:04:03.418Z,96986.59
2022-11-02T10:07:55.490Z,96982.97
2022-11-02T10:11:08.380Z,96978.81
2022-11-02T10:14:20.388Z,96976.03
2022-11-02T10:17:26.558Z,96987.66
2022-11-02T10:20:42.771Z,96982.97
2022-11-02T10:23:53.045Z,96986.50
2022-11-02T10:26:59.039Z,96991.88
2022-11-02T10:30:06.831Z,96995.06
2022-11-02T10:33:18.039Z,97000.16
2022-11-02T10:37:10.841Z,96993.22
2022-11-02T10:40:30.531Z,96996.63
2022-11-02T10:43:57.899Z,96986.75
2022-11-02T10:47:19.027Z,96994.78
2022-11-02T10:50:36.670Z,96993.94
2022-11-02T10:53:47.171Z,96993.94
2022-11-02T10:56:49.390Z,96983.75
2022-11-02T11:00:27.086Z,96993.47
2022-11-02T11:03:28.718Z,96982.72
2022-11-02T11:06:42.426Z,96986.25
2022-11-02T11:09:51.565Z,96994.84
2022-11-02T11:12:55.546Z,96989.31
2022-11-02T11:19:40.617Z,96975.19
2022-11-02T11:22:42.818Z,96980.41
2022-11-02T11:25:55.058Z,96971.19
2022-11-02T11:28:56.905Z,96974.41
2022-11-02T11:32:00.326Z,96973.91
2022-11-02T11:35:18.016Z,96970.56
2022-11-02T11:38:23.630Z,96965.34
2022-11-02T11:41:25.494Z,96963.34
2022-11-02T11:44:27.203Z,96960.50
2022-11-02T11:47:37.978Z,96961.19
2022-11-02T11:50:47.141Z,96963.72
2022-11-02T11:54:26.845Z,96958.84
2022-11-02T11:57:29.381Z,96953.47
2022-11-02T12:00:31.102Z,96956.16
2022-11-02T12:03:32.604Z,96948.09
2022-11-02T12:06:46.220Z,96937.69
2022-11-02T12:09:53.539Z,96942.06
2022-11-02T12:13:14.226Z,96948.28
2022-11-02T12:16:53.880Z,96943.59
2022-11-02T12:19:55.392Z,96946.28
2022-11-02T12:23:19.923Z,96930.31
2022-11-02T12:27:02.873Z,96927.34
2022-11-02T12:30:24.764Z,96922.31
2022-11-02T12:33:45.496Z,96920.63
2022-11-02T12:37:32.813Z,96912.41
2022-11-02T12:40:30.215Z,96919.31
2022-11-02T12:43:43.935Z,96906.72
2022-11-02T12:47:03.166Z,96900.81
2022-11-02T12:50:34.054Z,96916.66
2022-11-02T12:54:11.372Z,96914.97
2022-11-02T12:57:18.023Z,96910.44
2022-11-02T13:00:23.276Z,96910.28
2022-11-02T13:03:48.289Z,96914.97
2022-11-02T13:06:55.016Z,96906.41
2022-11-02T13:10:14.133Z,96908.94
2022-11-02T13:13:23.021Z,96903.22
2022-11-02T13:16:35.600Z,96898.88
2022-11-02T13:19:46.195Z,96896.34
2022-11-02T13:22:55.471Z,96896.16
2022-11-02T13:26:20.812Z,96894.13
2022-11-02T13:29:37.544Z,96894.97
2022-11-02T13:32:44.339Z,96892.97
2022-11-02T13:35:47.172Z,96906.25
2022-11-02T13:39:02.003Z,96887.25
2022-11-02T13:42:29.733Z,96896.66
2022-11-02T13:45:40.180Z,96879.53
2022-11-02T13:48:56.916Z,96886.75
2022-11-02T13:52:05.002Z,96872.31
2022-11-02T13:55:15.961Z,96873.16
2022-11-02T13:58:23.958Z,96874.84
2022-11-02T14:01:27.877Z,96867.28
2022-11-02T14:04:41.888Z,96868.47
2022-11-02T14:07:43.526Z,96871.31
2022-11-02T14:11:03.689Z,96861.56
2022-11-02T14:14:11.381Z,96869.47
2022-11-02T14:17:16.106Z,96868.47
2022-11-02T14:20:36.189Z,96872.84
2022-11-02T14:23:38.633Z,96867.63
2022-11-02T14:26:54.756Z,96861.25
2022-11-02T14:29:58.046Z,96859.56
2022-11-02T14:33:15.421Z,96856.19
2022-11-02T14:36:16.971Z,96853.16
2022-11-02T14:39:29.735Z,96858.22
2022-11-02T14:42:56.834Z,96864.91
2022-11-02T14:46:09.396Z,96859.34
2022-11-02T14:49:32.182Z,96866.38
2022-11-02T14:52:35.755Z,96868.72
2022-11-02T14:55:39.264Z,96868.69
2022-11-02T14:58:50.924Z,96859.59
2022-11-02T15:01:59.424Z,96846.16
2022-11-02T15:05:03.951Z,96849.63
2022-11-02T15:08:08.728Z,96854.78
2022-11-02T15:11:47.175Z,96856.44
2022-11-02T15:14:48.646Z,96857.22
2022-11-02T15:17:52.656Z,96867.63
2022-11-02T15:21:19.124Z,96860.53
2022-11-02T15:24:28.501Z,96851.53
2022-11-02T15:27:30.886Z,96867.47
2022-11-02T15:30:33.185Z,96861.22
2022-11-02T15:33:36.909Z,96861.00
2022-11-02T15:36:42.492Z,96852.06
2022-11-02T15:39:56.177Z,96852.19
2022-11-02T15:43:06.988Z,96861.28
2022-11-02T15:46:33.479Z,96847.16
2022-11-02T15:49:56.804Z,96846.25
2022-11-02T15:53:37.594Z,96851.81
2022-11-02T15:56:42.124Z,96842.19
2022-11-02T16:00:06.806Z,96851.13
2022-11-02T16:03:10.737Z,96861.06
2022-11-02T16:06:12.807Z,96855.78
2022-11-02T16:09:38.552Z,96855.00
2022-11-02T16:12:40.193Z,96848.03
2022-11-02T16:15:42.459Z,96852.31
2022-11-02T16:18:52.640Z,96862.06
2022-11-02T16:22:00.002Z,96858.44
2022-11-02T16:25:11.825Z,96852.84
2022-11-02T16:28:19.345Z,96852.75
2022-11-02T16:31:31.559Z,96841.84
2022-11-02T16:34:33.652Z,96857.22
2022-11-02T16:37:36.199Z,96850.75
2022-11-02T16:40:38.013Z,96853.47
2022-11-02T16:43:45.904Z,96848.00
2022-11-02T16:46:49.634Z,96862.06
2022-11-02T16:49:51.153Z,96853.94
2022-11-02T16:53:02.853Z,96850.16
2022-11-02T16:56:29.353Z,96845.81
2022-11-02T16:59:31.008Z,96847.50
2022-11-02T17:02:39.187Z,96842.03
2022-11-02T17:05:42.852Z,96852.44
2022-11-02T17:08:50.179Z,96852.44
2022-11-02T17:11:54.367Z,96858.19
2022-11-02T17:14:57.275Z,96849.91
2022-11-02T17:18:08.546Z,96857.78
2022-11-02T17:21:13.344Z,96857.50
2022-11-02T17:24:32.327Z,96862.69
2022-11-02T17:27:39.113Z,96866.88
2022-11-02T17:30:44.988Z,96862.78
2022-11-02T17:33:47.495Z,96865.16
2022-11-02T17:36:50.639Z,96860.41
2022-11-02T17:39:52.850Z,96856.03
2022-11-02T17:43:02.000Z,96868.53
2022-11-02T17:46:03.930Z,96869.91
2022-11-02T17:49:05.451Z,96871.16
2022-11-02T17:52:07.754Z,96869.75
2022-11-02T17:55:15.031Z,96863.97
2022-11-02T17:58:17.113Z,96860.88
2022-11-02T18:01:18.825Z,96851.00
2022-11-02T18:04:20.404Z,96847.78
2022-11-02T18:07:21.917Z,96845.50
2022-11-02T18:10:27.372Z,96851.13
2022-11-02T18:13:29.106Z,96841.13
2022-11-02T18:16:30.865Z,96849.25
2022-11-02T18:19:33.331Z,96853.31
2022-11-02T18:22:34.932Z,96843.31
2022-11-02T18:25:36.624Z,96840.22
2022-11-02T18:28:38.397Z,96842.16
2022-11-02T18:31:39.935Z,96834.53
2022-11-02T18:34:41.437Z,96820.19
2022-11-02T18:37:43.440Z,96819.34
2022-11-02T18:40:45.071Z,96806.81
2022-11-02T18:43:46.599Z,96811.44
2022-11-02T18:46:49.697Z,96814.25
2022-11-02T18:49:51.299Z,96797.81
2022-11-02T18:52:52.982Z,96795.41
2022-11-02T18:55:54.579Z,96787.97
2022-11-02T18:58:56.480Z,96798.63
2022-11-02T19:01:58.208Z,96785.69
2022-11-02T19:04:59.859Z,96772.19
2022-11-02T19:08:19.860Z,96776.53
2022-11-02T19:11:21.710Z,96775.84
2022-11-02T19:14:24.244Z,96784.91
2022-11-02T19:17:26.678Z,96770.91
2022-11-02T19:20:28.187Z,96766.81
2022-11-02T19:23:29.736Z,96764.69
2022-11-02T19:26:31.405Z,96766.03
2022-11-02T19:29:34.019Z,96763.38
2022-11-02T19:32:35.535Z,96758.19
2022-11-02T19:35:37.024Z,96757.84
2022-11-02T19:38:39.545Z,96752.69
2022-11-02T19:41:41.146Z,96752.81
2022-11-02T19:44:43.070Z,96739.44
2022-11-02T19:47:44.687Z,96741.84
2022-11-02T19:50:46.285Z,96743.91
2022-11-02T19:53:55.348Z,96745.16
2022-11-02T19:56:56.878Z,96735.59
2022-11-02T19:59:58.475Z,96742.16
2022-11-02T20:03:01.061Z,96736.25
2022-11-02T20:06:08.373Z,96740.16
2022-11-02T20:09:18.131Z,96746.56
2022-11-02T20:12:19.677Z,96745.72
2022-11-02T20:15:21.188Z,96739.81
2022-11-02T20:18:23.210Z,96746.34
2022-11-02T20:21:32.384Z,96748.44
2022-11-02T20:24:34.820Z,96746.97
2022-11-02T20:27:37.355Z,96730.69
2022-11-02T20:30:42.680Z,96742.44
2022-11-02T20:33:45.018Z,96745.34
2022-11-02T20:36:47.493Z,96739.69
2022-11-02T20:39:49.773Z,96744.28
2022-11-02T20:42:51.348Z,96740.91
2022-11-02T20:46:23.570Z,96742.13
2022-11-02T20:49:44.308Z,96738.28
2022-11-02T20:52:44.904Z,96741.31
2022-11-02T20:55:46.514Z,96738.34
2022-11-02T20:58:55.536Z,96737.50
2022-11-02T21:01:57.559Z,96740.25
2022-11-02T21:04:59.280Z,96733.75
2022-11-02T21:08:01.008Z,96734.25
2022-11-02T21:11:04.278Z,96730.63
2022-11-02T21:14:05.845Z,96733.41
2022-11-02T21:17:07.447Z,96725.78
2022-11-02T21:23:31.571Z,96735.22
2022-11-02T21:26:33.089Z,96739.00
2022-11-02T21:29:34.916Z,96740.91
2022-11-02T21:32:36.423Z,96734.03
2022-11-02T21:35:37.946Z,96723.91
2022-11-02T21:38:39.807Z,96720.66
2022-11-02T21:41:41.342Z,96721.00
2022-11-02T21:44:43.120Z,96729.81
2022-11-02T21:47:44.727Z,96716.81
2022-11-02T21:50:46.380Z,96711.72
2022-11-02T21:53:49.695Z,96714.75
2022-11-02T21:56:51.563Z,96709.81
2022-11-02T21:59:53.063Z,96705.72
2022-11-02T22:02:54.827Z,96701.44
2022-11-02T22:05:56.495Z,96715.44
2022-11-02T22:08:58.895Z,96705.31
2022-11-02T22:12:19.011Z,96702.91
2022-11-02T22:15:20.559Z,96697.97
2022-11-02T22:18:22.279Z,96703.16
2022-11-02T22:21:25.260Z,96699.03
2022-11-02T22:24:26.928Z,96697.50
2022-11-02T22:27:28.452Z,96686.53
2022-11-02T22:30:30.059Z,96685.06
2022-11-02T22:33:31.593Z,96686.75
2022-11-02T22:36:34.498Z,96686.28
2022-11-02T22:39:36.021Z,96696.88
2022-11-02T22:42:41.384Z,96683.00
2022-11-02T22:45:44.221Z,96684.22
2022-11-02T22:48:46.061Z,96687.00
2022-11-02T22:51:49.656Z,96680.09
2022-11-02T22:54:51.145Z,96674.09
2022-11-02T22:57:59.769Z,96660.44
2022-11-02T23:01:02.046Z,96654.56
2022-11-02T23:04:04.387Z,96652.59
2022-11-02T23:07:05.931Z,96671.41
2022-11-02T23:10:27.675Z,96670.81
2022-11-02T23:13:29.350Z,96674.44
2022-11-02T23:16:42.313Z,96675.50
2022-11-02T23:19:44.904Z,96663.56
2022-11-02T23:22:46.380Z,96659.22
2022-11-02T23:25:57.905Z,96654.88
2022-11-02T23:29:18.095Z,96655.00
2022-11-02T23:32:28.464Z,96638.84
2022-11-02T23:35:48.675Z,96641.28
2022-11-02T23:39:08.614Z,96636.94
2022-11-02T23:42:10.132Z,96621.63
2022-11-02T23:45:12.078Z,96628.38
2022-11-02T23:48:13.615Z,96617.78
2022-11-02T23:51:33.538Z,96613.09
2022-11-02T23:54:53.423Z,96616.22
2022-11-02T23:57:54.948Z,96618.13
